Time;durP1;ratioP1;P1;durP2;ratioP2;P2;SDS_P1;SDS_P2;PMS_P1;PMS_P2;Temp;Humidity;BMP_temperature;BMP_pressure;BME280_temperature;BME280_humidity;BME280_pressure;Samples;Min_cycle;Max_cycle;Signal;HPM_P1;HPM_P2
2021/11/12 00:12:24;;;;;;;33.10;14.50;;;;;;;;;;6276056;28;20100;-84
2021/11/12 00:15:26;;;;;;;25.42;12.90;;;;;;;;;;6269818;28;20497;-83
2021/11/12 00:18:29;;;;;;;29.50;13.25;;;;;;;;;;6277065;28;20039;-82
2021/11/12 00:21:31;;;;;;;31.08;14.35;;;;;;;;;;6274790;28;20045;-82
2021/11/12 00:24:33;;;;;;;32.28;15.40;;;;;;;;;;6276409;28;20040;-82
2021/11/12 00:27:36;;;;;;;32.63;16.50;;;;;;;;;;6271759;28;20052;-83
2021/11/12 00:43:35;;;;;;;29.48;14.88;;;;;;;;;;6293281;28;20135;-83
2021/11/12 00:46:52;;;;;;;34.20;15.48;;;;;;;;;;6274476;28;20139;-83
2021/11/12 00:56:27;;;;;;;36.92;16.15;;;;;;;;;;6276322;28;20048;-81
2021/11/12 00:59:29;;;;;;;31.60;15.80;;;;;;;;;;6292605;28;20040;-83
2021/11/12 01:02:32;;;;;;;34.22;15.00;;;;;;;;;;6293444;28;20044;-83
2021/11/12 01:05:34;;;;;;;29.42;15.25;;;;;;;;;;6292009;28;20051;-83
2021/11/12 01:08:35;;;;;;;30.52;15.20;;;;;;;;;;6303677;28;20091;-82
2021/11/12 01:11:39;;;;;;;32.33;16.15;;;;;;;;;;6293685;28;20052;-84
2021/11/12 01:14:40;;;;;;;27.50;15.18;;;;;;;;;;6260506;28;20405;-82
2021/11/12 01:17:43;;;;;;;32.55;14.75;;;;;;;;;;6293315;28;20045;-81
2021/11/12 01:20:45;;;;;;;32.63;14.52;;;;;;;;;;6290694;28;20032;-83
2021/11/12 01:23:49;;;;;;;32.20;15.07;;;;;;;;;;6274046;28;20102;-82
2021/11/12 01:26:51;;;;;;;25.88;14.63;;;;;;;;;;6292776;28;20128;-82
2021/11/12 01:29:52;;;;;;;31.50;14.77;;;;;;;;;;6288037;28;20056;-82
2021/11/12 01:32:54;;;;;;;36.08;16.48;;;;;;;;;;6274927;28;20040;-83
2021/11/12 01:36:02;;;;;;;32.00;16.13;;;;;;;;;;6274857;28;20044;-83
2021/11/12 01:39:07;;;;;;;30.80;15.45;;;;;;;;;;6293387;28;20032;-83
2021/11/12 01:42:09;;;;;;;31.50;15.48;;;;;;;;;;6272871;28;20055;-82
2021/11/12 01:45:11;;;;;;;31.45;16.80;;;;;;;;;;6270609;28;20053;-84
2021/11/12 01:51:48;;;;;;;29.00;15.13;;;;;;;;;;6259712;28;20059;-82
2021/11/12 01:55:14;;;;;;;27.42;15.05;;;;;;;;;;6274286;28;20091;-83
2021/11/12 02:01:25;;;;;;;32.83;15.02;;;;;;;;;;6272495;28;20055;-82
2021/11/12 02:04:31;;;;;;;33.63;15.43;;;;;;;;;;6272914;28;20070;-84
2021/11/12 02:07:35;;;;;;;32.00;15.27;;;;;;;;;;6285744;28;20047;-82
2021/11/12 02:10:37;;;;;;;32.40;15.25;;;;;;;;;;6273685;28;20028;-84
2021/11/12 02:13:41;;;;;;;29.23;14.68;;;;;;;;;;6257586;28;20052;-82
2021/11/12 02:16:57;;;;;;;26.08;14.30;;;;;;;;;;6273486;28;20064;-82
2021/11/12 02:20:07;;;;;;;32.35;15.30;;;;;;;;;;6287153;28;20421;-81
2021/11/12 02:23:09;;;;;;;34.17;15.68;;;;;;;;;;6266399;28;20092;-82
2021/11/12 02:26:18;;;;;;;29.52;14.88;;;;;;;;;;6284481;28;20131;-82
2021/11/12 02:29:20;;;;;;;35.08;15.43;;;;;;;;;;6273093;28;20424;-82
2021/11/12 02:32:28;;;;;;;32.57;15.03;;;;;;;;;;6276111;28;20456;-83
2021/11/12 02:35:32;;;;;;;26.02;12.93;;;;;;;;;;6272294;28;20498;-84
2021/11/12 02:38:39;;;;;;;;;;;;;;;;;;6268664;28;20055;-83
2021/11/12 02:41:42;;;;;;;30.23;14.15;;;;;;;;;;6262446;28;20555;-83
2021/11/12 02:44:44;;;;;;;29.33;13.73;;;;;;;;;;6272729;28;20032;-83
2021/11/12 02:47:46;;;;;;;29.27;14.48;;;;;;;;;;6277818;28;20508;-82
2021/11/12 02:50:47;;;;;;;29.23;14.82;;;;;;;;;;6294024;28;20036;-83
2021/11/12 02:53:50;;;;;;;26.40;13.40;;;;;;;;;;6277601;28;20322;-81
2021/11/12 02:56:55;;;;;;;29.83;14.40;;;;;;;;;;6262900;28;20128;-83
2021/11/12 02:59:59;;;;;;;28.30;14.73;;;;;;;;;;6277077;28;20044;-83
2021/11/12 03:03:00;;;;;;;;;;;;;;;;;;6296190;28;20048;-81
2021/11/12 03:06:02;;;;;;;28.70;14.35;;;;;;;;;;6294710;28;19920;-83
2021/11/12 03:09:07;;;;;;;27.80;14.05;;;;;;;;;;6261776;28;20045;-83
2021/11/12 03:12:09;;;;;;;27.13;14.35;;;;;;;;;;6278818;28;20051;-82
2021/11/12 03:15:11;;;;;;;27.35;14.27;;;;;;;;;;6294683;28;20081;-82
2021/11/12 03:18:12;;;;;;;29.10;14.45;;;;;;;;;;6296518;28;20049;-81
2021/11/12 03:21:18;;;;;;;28.27;14.57;;;;;;;;;;6277343;28;20062;-81
2021/11/12 03:24:25;;;;;;;31.35;14.45;;;;;;;;;;6274456;28;20447;-83
2021/11/12 03:27:39;;;;;;;27.25;14.68;;;;;;;;;;6276206;28;20043;-83
2021/11/12 04:03:57;;;;;;;25.77;13.32;;;;;;;;;;6293185;28;20040;-81
2021/11/12 04:07:02;;;;;;;28.00;14.40;;;;;;;;;;6290443;28;20044;-84
2021/11/12 04:40:16;;;;;;;28.42;14.57;;;;;;;;;;6267590;28;20053;-82
2021/11/12 05:10:34;;;;;;;26.92;14.50;;;;;;;;;;6273472;28;20409;-81
2021/11/12 05:25:39;;;;;;;25.65;14.80;;;;;;;;;;6292208;28;20096;-83
2021/11/12 05:50:06;;;;;;;37.08;16.40;;;;;;;;;;6269405;28;20044;-81
2021/11/12 05:56:28;;;;;;;43.00;16.60;;;;;;;;;;6269501;28;20119;-82
2021/11/12 05:59:29;;;;;;;38.38;17.10;;;;;;;;;;6245727;28;20226;-82
2021/11/12 06:02:31;;;;;;;46.45;17.17;;;;;;;;;;6268205;28;20044;-82
2021/11/12 06:05:33;;;;;;;42.60;16.23;;;;;;;;;;6287588;28;20044;-85
2021/11/12 06:08:37;;;;;;;43.97;16.50;;;;;;;;;;6270929;28;20048;-83
2021/11/12 06:11:38;;;;;;;44.72;17.48;;;;;;;;;;6271921;28;20416;-81
2021/11/12 06:14:41;;;;;;;44.17;16.83;;;;;;;;;;6289392;28;20459;-82
2021/11/12 06:17:43;;;;;;;48.67;17.55;;;;;;;;;;6292465;28;20044;-84
2021/11/12 06:20:45;;;;;;;45.42;17.08;;;;;;;;;;6256022;28;20039;-83
2021/11/12 06:23:47;;;;;;;44.63;16.33;;;;;;;;;;6256989;28;20045;-82
2021/11/12 06:26:48;;;;;;;48.53;17.35;;;;;;;;;;6274203;28;20455;-82
2021/11/12 06:29:50;;;;;;;49.75;17.08;;;;;;;;;;6266165;28;20047;-83
2021/11/12 06:32:52;;;;;;;45.17;17.00;;;;;;;;;;6273017;28;20071;-82
2021/11/12 06:35:58;;;;;;;48.15;17.33;;;;;;;;;;6289336;28;20072;-81
2021/11/12 06:39:00;;;;;;;44.97;20.30;;;;;;;;;;6272183;28;20063;-81
2021/11/12 06:42:09;;;;;;;37.00;11.93;;;;;;;;;;6254817;28;20049;-80
2021/11/12 06:51:34;;;;;;;47.95;15.00;;;;;;;;;;6288749;28;20037;-82
2021/11/12 06:54:35;;;;;;;34.97;13.35;;;;;;;;;;6254422;28;20048;-80
2021/11/12 06:57:38;;;;;;;39.30;13.73;;;;;;;;;;6290897;28;20054;-82
2021/11/12 07:00:40;;;;;;;33.22;13.55;;;;;;;;;;6273469;28;20123;-81
2021/11/12 07:03:42;;;;;;;31.48;11.32;;;;;;;;;;6272114;28;20274;-80
2021/11/12 07:06:43;;;;;;;30.75;11.40;;;;;;;;;;6288136;28;20196;-81
2021/11/12 07:09:46;;;;;;;34.20;11.82;;;;;;;;;;6291429;28;20044;-83
2021/11/12 07:12:51;;;;;;;19.38;8.90;;;;;;;;;;6287455;28;20619;-82
2021/11/12 07:15:52;;;;;;;22.40;9.77;;;;;;;;;;6268422;28;20528;-81
2021/11/12 07:18:55;;;;;;;25.02;10.38;;;;;;;;;;6273737;28;20052;-79
2021/11/12 07:21:58;;;;;;;23.23;8.52;;;;;;;;;;6280147;28;20130;-79
2021/11/12 07:25:00;;;;;;;20.15;8.70;;;;;;;;;;6289836;28;20044;-79
2021/11/12 07:28:01;;;;;;;18.92;7.78;;;;;;;;;;6284706;28;20117;-78
2021/11/12 07:31:03;;;;;;;21.05;7.90;;;;;;;;;;6292407;28;20048;-81
2021/11/12 07:34:05;;;;;;;21.60;8.82;;;;;;;;;;6274930;28;20123;-80
2021/11/12 07:37:11;;;;;;;19.80;8.48;;;;;;;;;;6293802;28;20059;-81
2021/11/12 07:40:23;;;;;;;21.70;7.45;;;;;;;;;;6295655;28;20143;-81
2021/11/12 07:49:54;;;;;;;23.45;8.45;;;;;;;;;;6296261;28;20569;-81
2021/11/12 07:52:59;;;;;;;28.65;9.40;;;;;;;;;;6295004;28;20115;-80
2021/11/12 07:56:01;;;;;;;23.08;9.40;;;;;;;;;;6294841;28;20048;-80
2021/11/12 07:59:03;;;;;;;23.05;9.43;;;;;;;;;;6275510;28;20038;-82
2021/11/12 08:02:06;;;;;;;32.72;10.02;;;;;;;;;;6294010;28;20672;-79
2021/11/12 08:05:31;;;;;;;;;;;;;;;;;;6292986;28;20056;-80
2021/11/12 08:08:34;;;;;;;27.27;9.32;;;;;;;;;;6277736;28;20015;-79
2021/11/12 08:18:12;;;;;;;29.25;11.38;;;;;;;;;;6292560;28;20462;-79
2021/11/12 08:24:37;;;;;;;33.63;11.25;;;;;;;;;;6293425;28;20061;-81
2021/11/12 08:27:54;;;;;;;34.78;10.68;;;;;;;;;;6278446;28;20123;-83
2021/11/12 08:34:14;;;;;;;27.75;10.40;;;;;;;;;;6289708;28;20044;-79
2021/11/12 08:44:04;;;;;;;22.90;10.02;;;;;;;;;;6270620;28;20049;-81
2021/11/12 08:50:17;;;;;;;24.00;9.20;;;;;;;;;;6279843;28;20052;-80
2021/11/12 08:53:19;;;;;;;21.38;8.70;;;;;;;;;;6287944;28;20175;-80
2021/11/12 08:56:23;;;;;;;30.33;12.82;;;;;;;;;;6290882;28;20044;-80
2021/11/12 08:59:24;;;;;;;;;;;;;;;;;;6255015;28;20064;-80
2021/11/12 09:02:28;;;;;;;33.05;12.57;;;;;;;;;;6288627;28;19927;-81
2021/11/12 09:05:30;;;;;;;26.87;10.40;;;;;;;;;;6284846;28;20094;-79
2021/11/12 09:08:34;;;;;;;22.45;9.55;;;;;;;;;;6272346;28;20595;-80
2021/11/12 09:11:38;;;;;;;19.95;9.32;;;;;;;;;;6289488;28;20044;-79
2021/11/12 09:14:50;;;;;;;19.55;8.20;;;;;;;;;;6288269;28;20047;-80
2021/11/12 09:17:53;;;;;;;22.95;9.07;;;;;;;;;;6291520;28;20051;-81
2021/11/12 09:20:56;;;;;;;26.25;10.50;;;;;;;;;;6279901;28;20044;-78
2021/11/12 09:23:59;;;;;;;18.30;7.32;;;;;;;;;;6270372;28;20517;-79
2021/11/12 09:27:00;;;;;;;18.55;7.90;;;;;;;;;;6272984;28;20051;-80
2021/11/12 09:30:07;;;;;;;18.77;8.05;;;;;;;;;;6288943;28;20039;-81
2021/11/12 09:33:09;;;;;;;61.67;19.25;;;;;;;;;;6270485;28;20520;-79
2021/11/12 09:36:11;;;;;;;22.63;9.45;;;;;;;;;;6269553;28;20044;-80
2021/11/12 09:39:13;;;;;;;66.95;16.58;;;;;;;;;;6283985;28;20048;-80
2021/11/12 09:42:15;;;;;;;70.78;18.83;;;;;;;;;;6269860;28;20444;-80
2021/11/12 09:45:18;;;;;;;30.13;11.50;;;;;;;;;;6289540;28;20051;-81
2021/11/12 09:48:20;;;;;;;39.35;13.38;;;;;;;;;;6266147;28;20036;-80
2021/11/12 09:51:22;;;;;;;16.50;7.15;;;;;;;;;;6271878;28;20052;-81
2021/11/12 09:54:24;;;;;;;22.65;8.13;;;;;;;;;;6270384;28;20189;-79
2021/11/12 09:57:25;;;;;;;20.70;8.48;;;;;;;;;;6265253;28;20037;-80
2021/11/12 10:00:28;;;;;;;20.77;8.82;;;;;;;;;;6281895;28;20056;-80
2021/11/12 10:03:34;;;;;;;29.37;12.17;;;;;;;;;;6286479;28;20047;-80
2021/11/12 10:06:38;;;;;;;24.65;9.68;;;;;;;;;;6278381;28;20447;-79
2021/11/12 10:09:44;;;;;;;23.92;8.20;;;;;;;;;;6281665;28;20475;-81
2021/11/12 10:12:49;;;;;;;21.25;8.10;;;;;;;;;;6278928;28;20051;-81
2021/11/12 10:16:13;;;;;;;22.02;9.38;;;;;;;;;;6269567;28;20045;-80
2021/11/12 10:19:18;;;;;;;19.95;8.27;;;;;;;;;;6267801;28;20047;-79
2021/11/12 10:22:24;;;;;;;25.48;8.90;;;;;;;;;;6288777;28;20064;-80
2021/11/12 10:25:27;;;;;;;15.85;7.00;;;;;;;;;;6291518;28;20044;-79
2021/11/12 10:28:34;;;;;;;19.05;7.72;;;;;;;;;;6290629;28;20054;-81
2021/11/12 10:31:47;;;;;;;19.33;7.68;;;;;;;;;;6281278;28;20128;-79
2021/11/12 10:34:52;;;;;;;18.95;8.15;;;;;;;;;;6287117;28;20051;-80
2021/11/12 10:38:10;;;;;;;22.92;8.65;;;;;;;;;;6284301;28;20064;-79
2021/11/12 10:41:22;;;;;;;23.55;8.60;;;;;;;;;;6283977;28;20144;-79
2021/11/12 10:44:24;;;;;;;20.02;7.63;;;;;;;;;;6259238;28;20041;-79
2021/11/12 10:47:28;;;;;;;24.33;9.55;;;;;;;;;;6271476;28;20131;-80
2021/11/12 10:50:35;;;;;;;22.23;9.15;;;;;;;;;;6256103;28;20045;-79
2021/11/12 10:53:50;;;;;;;22.05;9.13;;;;;;;;;;6268979;28;20881;-79
2021/11/12 10:56:51;;;;;;;20.20;9.43;;;;;;;;;;6297218;28;20125;-78
2021/11/12 11:00:04;;;;;;;27.20;10.73;;;;;;;;;;6267569;28;20053;-79
2021/11/12 11:03:10;;;;;;;117.13;40.55;;;;;;;;;;6292210;28;20047;-79
2021/11/12 11:06:25;;;;;;;104.80;43.97;;;;;;;;;;6276399;28;20041;-78
2021/11/12 11:09:39;;;;;;;24.70;11.52;;;;;;;;;;6293185;28;20040;-79
2021/11/12 11:12:43;;;;;;;22.83;10.18;;;;;;;;;;6276561;28;20040;-77
2021/11/12 11:15:52;;;;;;;30.63;14.30;;;;;;;;;;6291219;28;20127;-79
2021/11/12 11:18:56;;;;;;;20.10;8.48;;;;;;;;;;6294310;28;20044;-78
2021/11/12 11:22:02;;;;;;;20.67;8.85;;;;;;;;;;6274555;28;20123;-77
2021/11/12 11:25:07;;;;;;;22.27;8.80;;;;;;;;;;6294057;28;20183;-78
2021/11/12 11:28:08;;;;;;;23.70;9.10;;;;;;;;;;6274920;28;20186;-79
2021/11/12 11:31:13;;;;;;;22.73;9.13;;;;;;;;;;6293345;28;20429;-79
2021/11/12 11:34:14;;;;;;;22.48;9.40;;;;;;;;;;6276000;28;20047;-78
2021/11/12 11:37:16;;;;;;;21.23;7.72;;;;;;;;;;6283851;28;20051;-79
2021/11/12 11:40:19;;;;;;;25.92;9.70;;;;;;;;;;6291871;28;20123;-79
2021/11/12 11:43:22;;;;;;;21.45;8.70;;;;;;;;;;6290545;28;20037;-77
2021/11/12 11:46:28;;;;;;;25.90;10.48;;;;;;;;;;6272218;28;20120;-79
2021/11/12 11:49:32;;;;;;;28.48;10.32;;;;;;;;;;6275100;28;20041;-78
2021/11/12 11:52:34;;;;;;;;;;;;;;;;;;6289272;28;20175;-78
2021/11/12 11:55:37;;;;;;;27.08;8.98;;;;;;;;;;6294984;28;19920;-81
2021/11/12 11:58:42;;;;;;;31.75;11.63;;;;;;;;;;6287648;28;20048;-79
2021/11/12 12:01:50;;;;;;;29.33;10.05;;;;;;;;;;6266466;28;20136;-81
2021/11/12 12:04:57;;;;;;;25.58;10.45;;;;;;;;;;6263786;28;20056;-78
2021/11/12 12:07:59;;;;;;;46.42;14.98;;;;;;;;;;6262839;28;20104;-81
2021/11/12 12:11:15;;;;;;;28.95;11.18;;;;;;;;;;6247148;28;20049;-79
2021/11/12 12:14:19;;;;;;;26.80;9.98;;;;;;;;;;6277848;28;20051;-78
2021/11/12 12:17:25;;;;;;;22.38;8.95;;;;;;;;;;6277254;28;20136;-80
2021/11/12 12:20:35;;;;;;;22.83;8.38;;;;;;;;;;6275945;28;20485;-81
2021/11/12 13:22:34;;;;;;;29.00;11.55;;;;;;;;;;6277649;28;20113;-77
2021/11/12 13:25:42;;;;;;;30.40;12.98;;;;;;;;;;6253909;28;20100;-78
2021/11/12 13:28:45;;;;;;;26.15;12.32;;;;;;;;;;6286643;28;20408;-78
2021/11/12 13:31:57;;;;;;;27.00;11.15;;;;;;;;;;6263037;28;20037;-80
2021/11/12 13:34:59;;;;;;;30.85;13.32;;;;;;;;;;6282730;28;20044;-79
2021/11/12 13:38:04;;;;;;;28.50;12.48;;;;;;;;;;6246530;28;20045;-78
2021/11/12 13:41:07;;;;;;;36.08;15.65;;;;;;;;;;6248502;28;20037;-79
2021/11/12 13:44:18;;;;;;;31.30;13.77;;;;;;;;;;6249841;28;20044;-77
2021/11/12 13:47:22;;;;;;;31.08;13.93;;;;;;;;;;6250250;28;20045;-79
2021/11/12 13:50:24;;;;;;;30.95;12.48;;;;;;;;;;6252963;28;20037;-79
2021/11/12 13:53:31;;;;;;;23.25;10.43;;;;;;;;;;6254944;28;20065;-79
2021/11/12 13:56:36;;;;;;;29.65;11.38;;;;;;;;;;6268870;28;20049;-79
2021/11/12 13:59:49;;;;;;;27.25;11.45;;;;;;;;;;6268422;28;20048;-78
2021/11/12 14:02:54;;;;;;;30.77;12.50;;;;;;;;;;6290606;28;20040;-80
2021/11/12 14:05:57;;;;;;;28.77;12.27;;;;;;;;;;6244776;28;20053;-80
2021/11/12 14:09:02;;;;;;;24.10;10.90;;;;;;;;;;6270009;28;20134;-78
2021/11/12 14:12:08;;;;;;;30.55;11.90;;;;;;;;;;6285995;28;20051;-78
2021/11/12 14:29:12;;;;;;;32.65;11.48;;;;;;;;;;6287424;28;20090;-81
2021/11/12 14:38:55;;;;;;;31.27;11.38;;;;;;;;;;6285788;28;20043;-79
2021/11/12 14:45:30;;;;;;;27.38;10.18;;;;;;;;;;6296775;28;20044;-80
2021/11/12 14:48:57;;;;;;;33.88;13.30;;;;;;;;;;6259367;28;20048;-79
2021/11/12 14:52:35;;;;;;;34.28;12.63;;;;;;;;;;6292833;28;20048;-77
2021/11/12 14:55:29;;;;;;;33.05;12.00;;;;;;;;;;6291243;28;20501;-80
2021/11/12 14:58:33;;;;;;;33.40;12.30;;;;;;;;;;6274870;28;20346;-78
2021/11/12 15:01:37;;;;;;;;;;;;;;;;;;6295206;28;20052;-80
2021/11/12 15:04:40;;;;;;;31.98;12.00;;;;;;;;;;6274734;28;20436;-79
2021/11/12 15:07:53;;;;;;;33.50;12.30;;;;;;;;;;6254871;28;20052;-78
2021/11/12 15:10:55;;;;;;;41.40;12.63;;;;;;;;;;6278302;28;20086;-79
2021/11/12 15:14:10;;;;;;;35.10;12.83;;;;;;;;;;6274038;28;20113;-78
2021/11/12 15:17:32;;;;;;;38.70;13.98;;;;;;;;;;6295278;28;20048;-78
2021/11/12 15:20:36;;;;;;;37.60;12.93;;;;;;;;;;6286848;28;20056;-80
2021/11/12 15:23:59;;;;;;;37.97;13.98;;;;;;;;;;6294213;28;20115;-80
2021/11/12 15:30:31;;;;;;;34.47;12.30;;;;;;;;;;6228360;28;20048;-79
2021/11/12 15:33:32;;;;;;;36.85;13.45;;;;;;;;;;6281628;28;20052;-81
2021/11/12 15:36:42;;;;;;;34.75;12.38;;;;;;;;;;6291142;28;20118;-79
2021/11/12 15:46:05;;;;;;;37.00;13.02;;;;;;;;;;6290243;28;20047;-77
2021/11/12 15:49:08;;;;;;;41.63;15.10;;;;;;;;;;6294766;28;20048;-80
2021/11/12 15:52:13;;;;;;;39.00;13.93;;;;;;;;;;6273382;28;20032;-80
2021/11/12 16:11:42;;;;;;;46.90;14.48;;;;;;;;;;6290139;28;20054;-77
2021/11/12 16:15:06;;;;;;;44.88;15.00;;;;;;;;;;6270293;28;20245;-78
2021/11/12 16:21:39;;;;;;;43.92;13.38;;;;;;;;;;6292214;28;20541;-78
2021/11/12 16:28:03;;;;;;;76.50;26.38;;;;;;;;;;6293643;28;20059;-79
2021/11/12 16:31:05;;;;;;;;;;;;;;;;;;6283831;28;20045;-79
2021/11/12 16:34:14;;;;;;;48.20;15.82;;;;;;;;;;6271497;28;19934;-77
2021/11/12 16:37:22;;;;;;;51.17;15.45;;;;;;;;;;6288938;28;20037;-77
2021/11/12 16:40:36;;;;;;;47.38;14.50;;;;;;;;;;6272959;28;20040;-79
2021/11/12 16:44:05;;;;;;;47.13;14.25;;;;;;;;;;6273328;28;20043;-78
2021/11/12 16:50:22;;;;;;;80.18;21.65;;;;;;;;;;6287555;28;20139;-77
2021/11/12 17:06:23;;;;;;;75.00;25.58;;;;;;;;;;6286503;28;20041;-80
2021/11/12 17:13:09;;;;;;;65.53;22.17;;;;;;;;;;6273425;28;20116;-79
2021/11/12 18:05:34;;;;;;;46.95;13.52;;;;;;;;;;6242733;28;20061;-81
2021/11/12 18:08:58;;;;;;;41.83;13.32;;;;;;;;;;6244996;28;20126;-80
2021/11/12 21:47:16;;;;;;;25.55;8.43;;;;;;;;;;6224290;28;20045;-78
2021/11/12 21:50:18;;;;;;;26.25;9.15;;;;;;;;;;6236195;28;20041;-79
2021/11/12 21:53:22;;;;;;;27.45;8.32;;;;;;;;;;6238860;28;20049;-79
2021/11/12 21:56:24;;;;;;;23.27;7.60;;;;;;;;;;6244252;28;20108;-79
2021/11/12 21:59:26;;;;;;;26.80;8.05;;;;;;;;;;6239415;28;20479;-80
2021/11/12 22:02:28;;;;;;;26.25;8.90;;;;;;;;;;6247487;28;20049;-79
2021/11/12 22:05:30;;;;;;;22.58;7.78;;;;;;;;;;6219185;28;20044;-78
2021/11/12 22:08:33;;;;;;;21.92;8.25;;;;;;;;;;6219722;28;20802;-81
2021/11/12 22:11:35;;;;;;;22.92;7.72;;;;;;;;;;6219444;28;20050;-79
2021/11/12 22:14:36;;;;;;;19.75;7.07;;;;;;;;;;6210904;28;20064;-81
2021/11/12 22:17:38;;;;;;;20.40;7.70;;;;;;;;;;6226593;28;20040;-81
2021/11/12 22:20:41;;;;;;;20.42;7.13;;;;;;;;;;6224909;28;20045;-81
2021/11/12 22:23:49;;;;;;;20.77;7.18;;;;;;;;;;6219934;28;20045;-81
2021/11/12 22:26:51;;;;;;;23.75;7.78;;;;;;;;;;6208306;28;20575;-81
2021/11/12 22:29:52;;;;;;;21.75;6.97;;;;;;;;;;6226760;28;20078;-80
2021/11/12 22:32:54;;;;;;;22.33;6.40;;;;;;;;;;6241141;28;20044;-82
2021/11/12 22:35:56;;;;;;;20.75;7.28;;;;;;;;;;6213058;28;20157;-80
2021/11/12 22:38:58;;;;;;;20.35;6.82;;;;;;;;;;6213652;28;20050;-79
2021/11/12 22:41:59;;;;;;;19.15;7.30;;;;;;;;;;6198678;28;20076;-79
2021/11/12 22:45:02;;;;;;;23.42;8.25;;;;;;;;;;6221309;28;20139;-81
2021/11/12 22:48:04;;;;;;;24.05;7.57;;;;;;;;;;6226191;28;20084;-80
2021/11/12 22:51:08;;;;;;;21.40;7.65;;;;;;;;;;6238637;28;20049;-82
2021/11/12 22:54:09;;;;;;;20.40;7.10;;;;;;;;;;6246540;28;20055;-81
2021/11/12 22:57:17;;;;;;;24.20;7.63;;;;;;;;;;6230288;28;20046;-80
2021/11/12 23:00:25;;;;;;;22.30;9.50;;;;;;;;;;6238198;28;20099;-79
2021/11/12 23:03:27;;;;;;;22.50;7.80;;;;;;;;;;6228217;28;20088;-81
2021/11/12 23:06:38;;;;;;;19.48;8.50;;;;;;;;;;6229673;28;20046;-81
2021/11/12 23:09:40;;;;;;;20.67;8.15;;;;;;;;;;6222831;28;20154;-79
2021/11/12 23:12:43;;;;;;;25.35;7.63;;;;;;;;;;6234009;28;20038;-80
2021/11/12 23:15:44;;;;;;;22.17;7.30;;;;;;;;;;6250134;28;20134;-81
2021/11/12 23:18:49;;;;;;;20.98;7.65;;;;;;;;;;6235615;28;20440;-80
2021/11/12 23:21:50;;;;;;;23.23;8.40;;;;;;;;;;6241607;28;20525;-79
2021/11/12 23:24:52;;;;;;;22.08;7.35;;;;;;;;;;6252030;28;20128;-80
2021/11/12 23:28:14;;;;;;;22.10;7.57;;;;;;;;;;6232233;28;20053;-82
2021/11/12 23:31:16;;;;;;;22.50;7.22;;;;;;;;;;6246640;28;20771;-81
2021/11/12 23:34:18;;;;;;;20.33;8.55;;;;;;;;;;6250384;28;20046;-81
2021/11/12 23:37:19;;;;;;;19.05;6.90;;;;;;;;;;6248848;28;20140;-80
2021/11/12 23:40:22;;;;;;;25.00;7.78;;;;;;;;;;6252158;28;20061;-82
2021/11/12 23:43:23;;;;;;;20.73;7.10;;;;;;;;;;6210632;28;20048;-81
2021/11/12 23:46:25;;;;;;;18.83;7.10;;;;;;;;;;6248888;28;20052;-82
2021/11/12 23:49:26;;;;;;;20.33;6.82;;;;;;;;;;6216843;28;20060;-78
2021/11/12 23:52:28;;;;;;;17.08;6.97;;;;;;;;;;6214795;28;20075;-80
2021/11/12 23:55:30;;;;;;;20.73;7.20;;;;;;;;;;6234232;28;20116;-82
2021/11/12 23:58:31;;;;;;;23.08;7.82;;;;;;;;;;6231342;28;20048;-82
